KFOE/FOE METAR and TAF weather

Enter ICAO airport designator
Station Type Date Time Source
KFOE METAR 2019/12/09 13:53 UTC NOAA

KFOE 091353Z 34017G28KT 9SM OVC010 03/02 A2969 RMK AO2 PK WND 32031/1341 SLP058 T00330017


Station Type Date Time Source
KFOE Decoded METAR 2019/12/09 13:53 UTC NOAA

FORBES FIELD, KS, United States (KFOE) 38-56N 95-39W 320M
Dec 09, 2019 - 08:53 AM EST / 2019.12.09 1353 UTC
Wind: from the NNW (340 degrees) at 20 MPH (17 KT) gusting to 32 MPH (28 KT):0
Visibility: 9 mile(s):0
Sky conditions: overcast
Temperature: 37.9 F (3.3 C)
Dew Point: 35.1 F (1.7 C)
Relative Humidity: 89%
Pressure (altimeter): 29.69 in. Hg (1005 hPa)
ob: KFOE 091353Z 34017G28KT 9SM OVC010 03/02 A2969 RMK AO2 PK WND 32031/1341 SLP058 T00330017
cycle: 14

Station Type Date Time Source
KFOE TAF 2019/12/09 12:40 UTC NOAA

TAF KFOE 091138Z 0912/1012 27011KT 1/2SM FG OVC002
FM091300 32017G28KT P6SM OVC004
FM091400 33021G35KT P6SM VCSH BKN007
FM091700 33020G31KT P6SM SCT040
FM100000 32010KT P6SM SKC

Example: see airport list